sensor_id;sensor_type;location;lat;lon;timestamp;P1;durP1;ratioP1;P2;durP2;ratioP2
19018;SDS011;9642;50.842;4.348;2022-09-12T00:01:12;12.02;;;9.32;;
19018;SDS011;9642;50.842;4.348;2022-09-12T00:03:40;13.70;;;9.82;;
19018;SDS011;9642;50.842;4.348;2022-09-12T00:06:11;15.50;;;9.57;;
19018;SDS011;9642;50.842;4.348;2022-09-12T00:08:41;13.45;;;9.95;;
19018;SDS011;9642;50.842;4.348;2022-09-12T00:11:07;13.07;;;9.27;;
19018;SDS011;9642;50.842;4.348;2022-09-12T00:13:34;13.30;;;9.68;;
19018;SDS011;9642;50.842;4.348;2022-09-12T00:16:02;14.80;;;9.82;;
19018;SDS011;9642;50.842;4.348;2022-09-12T00:18:28;12.88;;;9.90;;
19018;SDS011;9642;50.842;4.348;2022-09-12T00:20:53;12.18;;;10.38;;
19018;SDS011;9642;50.842;4.348;2022-09-12T00:23:19;12.90;;;9.10;;
19018;SDS011;9642;50.842;4.348;2022-09-12T00:25:46;11.12;;;9.32;;
19018;SDS011;9642;50.842;4.348;2022-09-12T00:28:13;13.50;;;9.90;;
19018;SDS011;9642;50.842;4.348;2022-09-12T00:30:41;16.23;;;9.50;;
19018;SDS011;9642;50.842;4.348;2022-09-12T00:33:08;14.95;;;9.20;;
19018;SDS011;9642;50.842;4.348;2022-09-12T00:35:40;12.57;;;9.32;;
19018;SDS011;9642;50.842;4.348;2022-09-12T00:38:14;11.23;;;9.32;;
19018;SDS011;9642;50.842;4.348;2022-09-12T00:40:41;12.75;;;9.52;;
19018;SDS011;9642;50.842;4.348;2022-09-12T00:43:14;11.65;;;9.07;;
19018;SDS011;9642;50.842;4.348;2022-09-12T00:46:01;11.60;;;8.85;;
19018;SDS011;9642;50.842;4.348;2022-09-12T00:48:37;13.35;;;9.05;;
19018;SDS011;9642;50.842;4.348;2022-09-12T00:51:10;12.57;;;8.63;;
19018;SDS011;9642;50.842;4.348;2022-09-12T00:53:37;13.13;;;9.15;;
19018;SDS011;9642;50.842;4.348;2022-09-12T00:56:05;11.12;;;9.25;;
19018;SDS011;9642;50.842;4.348;2022-09-12T00:58:39;12.80;;;9.48;;
19018;SDS011;9642;50.842;4.348;2022-09-12T01:01:11;15.23;;;9.90;;
19018;SDS011;9642;50.842;4.348;2022-09-12T01:03:37;14.45;;;9.75;;
19018;SDS011;9642;50.842;4.348;2022-09-12T01:06:09;12.68;;;9.70;;
19018;SDS011;9642;50.842;4.348;2022-09-12T01:08:43;16.85;;;9.05;;
19018;SDS011;9642;50.842;4.348;2022-09-12T01:11:11;18.00;;;9.10;;
19018;SDS011;9642;50.842;4.348;2022-09-12T01:13:38;13.95;;;9.32;;
19018;SDS011;9642;50.842;4.348;2022-09-12T01:16:05;13.70;;;8.73;;
19018;SDS011;9642;50.842;4.348;2022-09-12T01:18:43;13.15;;;9.48;;
19018;SDS011;9642;50.842;4.348;2022-09-12T01:35:18;12.73;;;8.90;;
19018;SDS011;9642;50.842;4.348;2022-09-12T01:40:41;13.18;;;9.48;;
19018;SDS011;9642;50.842;4.348;2022-09-12T01:43:30;17.02;;;9.50;;
19018;SDS011;9642;50.842;4.348;2022-09-12T01:46:28;15.20;;;10.05;;
19018;SDS011;9642;50.842;4.348;2022-09-12T01:49:16;13.25;;;9.80;;
19018;SDS011;9642;50.842;4.348;2022-09-12T01:52:02;16.85;;;10.43;;
19018;SDS011;9642;50.842;4.348;2022-09-12T01:55:14;17.85;;;10.25;;
19018;SDS011;9642;50.842;4.348;2022-09-12T01:57:38;12.27;;;9.65;;
19018;SDS011;9642;50.842;4.348;2022-09-12T02:00:17;12.75;;;9.75;;
19018;SDS011;9642;50.842;4.348;2022-09-12T02:02:46;12.70;;;9.77;;
19018;SDS011;9642;50.842;4.348;2022-09-12T02:05:19;15.50;;;10.18;;
19018;SDS011;9642;50.842;4.348;2022-09-12T02:08:02;14.70;;;9.77;;
19018;SDS011;9642;50.842;4.348;2022-09-12T02:10:36;14.77;;;9.55;;
19018;SDS011;9642;50.842;4.348;2022-09-12T02:13:13;17.23;;;9.95;;
19018;SDS011;9642;50.842;4.348;2022-09-12T02:15:47;11.75;;;9.57;;
19018;SDS011;9642;50.842;4.348;2022-09-12T02:18:17;16.55;;;9.35;;
19018;SDS011;9642;50.842;4.348;2022-09-12T02:20:46;13.02;;;9.52;;
19018;SDS011;9642;50.842;4.348;2022-09-12T02:23:14;15.65;;;9.88;;
19018;SDS011;9642;50.842;4.348;2022-09-12T02:25:45;14.68;;;9.77;;
19018;SDS011;9642;50.842;4.348;2022-09-12T02:28:16;12.65;;;9.55;;
19018;SDS011;9642;50.842;4.348;2022-09-12T02:30:58;13.48;;;9.88;;
19018;SDS011;9642;50.842;4.348;2022-09-12T02:33:42;14.93;;;10.43;;
19018;SDS011;9642;50.842;4.348;2022-09-12T02:36:11;13.85;;;10.10;;
19018;SDS011;9642;50.842;4.348;2022-09-12T02:38:48;18.80;;;10.25;;
19018;SDS011;9642;50.842;4.348;2022-09-12T02:41:16;13.95;;;10.35;;
19018;SDS011;9642;50.842;4.348;2022-09-12T02:43:44;22.40;;;10.65;;
19018;SDS011;9642;50.842;4.348;2022-09-12T02:46:18;15.65;;;9.90;;
19018;SDS011;9642;50.842;4.348;2022-09-12T02:49:05;19.27;;;11.05;;
19018;SDS011;9642;50.842;4.348;2022-09-12T02:51:30;12.60;;;9.70;;
19018;SDS011;9642;50.842;4.348;2022-09-12T02:53:57;14.75;;;10.50;;
19018;SDS011;9642;50.842;4.348;2022-09-12T02:56:27;15.13;;;10.35;;
19018;SDS011;9642;50.842;4.348;2022-09-12T02:58:55;15.77;;;10.50;;
19018;SDS011;9642;50.842;4.348;2022-09-12T03:01:35;14.48;;;9.63;;
19018;SDS011;9642;50.842;4.348;2022-09-12T03:05:05;18.30;;;9.85;;
19018;SDS011;9642;50.842;4.348;2022-09-12T03:10:05;15.55;;;9.63;;
19018;SDS011;9642;50.842;4.348;2022-09-12T03:13:07;12.57;;;9.70;;
19018;SDS011;9642;50.842;4.348;2022-09-12T03:20:44;12.75;;;9.93;;
19018;SDS011;9642;50.842;4.348;2022-09-12T03:23:24;13.05;;;10.30;;
19018;SDS011;9642;50.842;4.348;2022-09-12T03:26:15;15.45;;;10.52;;
19018;SDS011;9642;50.842;4.348;2022-09-12T03:28:48;15.48;;;10.18;;
19018;SDS011;9642;50.842;4.348;2022-09-12T03:31:15;14.15;;;10.10;;
19018;SDS011;9642;50.842;4.348;2022-09-12T03:33:43;25.45;;;9.93;;
19018;SDS011;9642;50.842;4.348;2022-09-12T03:36:18;15.85;;;10.00;;
19018;SDS011;9642;50.842;4.348;2022-09-12T03:38:48;12.35;;;10.32;;
19018;SDS011;9642;50.842;4.348;2022-09-12T03:41:15;16.92;;;10.05;;
19018;SDS011;9642;50.842;4.348;2022-09-12T03:43:40;15.13;;;9.65;;
19018;SDS011;9642;50.842;4.348;2022-09-12T03:46:06;17.33;;;9.80;;
19018;SDS011;9642;50.842;4.348;2022-09-12T03:48:32;15.35;;;9.35;;
19018;SDS011;9642;50.842;4.348;2022-09-12T03:50:59;18.15;;;9.80;;
19018;SDS011;9642;50.842;4.348;2022-09-12T03:53:29;14.18;;;9.85;;
19018;SDS011;9642;50.842;4.348;2022-09-12T03:55:56;16.02;;;10.45;;
19018;SDS011;9642;50.842;4.348;2022-09-12T03:58:22;11.80;;;10.18;;
19018;SDS011;9642;50.842;4.348;2022-09-12T04:00:49;18.05;;;10.45;;
19018;SDS011;9642;50.842;4.348;2022-09-12T04:03:15;13.40;;;10.48;;
19018;SDS011;9642;50.842;4.348;2022-09-12T04:05:44;13.68;;;10.45;;
19018;SDS011;9642;50.842;4.348;2022-09-12T04:08:11;12.85;;;9.93;;
19018;SDS011;9642;50.842;4.348;2022-09-12T04:10:37;14.25;;;10.45;;
19018;SDS011;9642;50.842;4.348;2022-09-12T04:13:03;13.57;;;10.77;;
19018;SDS011;9642;50.842;4.348;2022-09-12T04:15:28;15.60;;;11.63;;
19018;SDS011;9642;50.842;4.348;2022-09-12T04:17:54;16.77;;;11.38;;
19018;SDS011;9642;50.842;4.348;2022-09-12T04:20:20;19.35;;;11.48;;
19018;SDS011;9642;50.842;4.348;2022-09-12T04:22:46;15.02;;;10.73;;
19018;SDS011;9642;50.842;4.348;2022-09-12T04:25:12;20.17;;;10.45;;
19018;SDS011;9642;50.842;4.348;2022-09-12T04:27:38;18.62;;;11.02;;
19018;SDS011;9642;50.842;4.348;2022-09-12T04:30:04;21.98;;;11.43;;
19018;SDS011;9642;50.842;4.348;2022-09-12T04:32:31;17.42;;;10.35;;
19018;SDS011;9642;50.842;4.348;2022-09-12T04:34:57;13.85;;;10.32;;
19018;SDS011;9642;50.842;4.348;2022-09-12T04:37:22;17.25;;;11.40;;
19018;SDS011;9642;50.842;4.348;2022-09-12T04:39:49;18.02;;;11.05;;
19018;SDS011;9642;50.842;4.348;2022-09-12T04:42:16;14.23;;;11.02;;
19018;SDS011;9642;50.842;4.348;2022-09-12T04:44:42;14.32;;;10.70;;
19018;SDS011;9642;50.842;4.348;2022-09-12T04:47:08;14.55;;;11.05;;
19018;SDS011;9642;50.842;4.348;2022-09-12T04:49:34;15.63;;;11.20;;
19018;SDS011;9642;50.842;4.348;2022-09-12T04:52:00;19.37;;;11.38;;
19018;SDS011;9642;50.842;4.348;2022-09-12T04:54:26;18.73;;;10.70;;
19018;SDS011;9642;50.842;4.348;2022-09-12T04:56:52;20.50;;;10.57;;
19018;SDS011;9642;50.842;4.348;2022-09-12T04:59:19;21.25;;;11.10;;
19018;SDS011;9642;50.842;4.348;2022-09-12T05:01:46;31.80;;;12.48;;
19018;SDS011;9642;50.842;4.348;2022-09-12T05:04:12;30.55;;;11.93;;
19018;SDS011;9642;50.842;4.348;2022-09-12T05:06:39;26.58;;;11.60;;
19018;SDS011;9642;50.842;4.348;2022-09-12T05:09:06;55.15;;;14.98;;
19018;SDS011;9642;50.842;4.348;2022-09-12T05:11:36;23.67;;;10.52;;
19018;SDS011;9642;50.842;4.348;2022-09-12T05:14:03;19.90;;;11.00;;
19018;SDS011;9642;50.842;4.348;2022-09-12T05:16:29;22.08;;;11.10;;
19018;SDS011;9642;50.842;4.348;2022-09-12T05:18:57;25.85;;;11.57;;
19018;SDS011;9642;50.842;4.348;2022-09-12T05:21:24;22.17;;;11.20;;
19018;SDS011;9642;50.842;4.348;2022-09-12T05:23:51;20.00;;;10.88;;
19018;SDS011;9642;50.842;4.348;2022-09-12T05:26:21;17.55;;;10.90;;
19018;SDS011;9642;50.842;4.348;2022-09-12T05:28:48;11.02;;;9.60;;
19018;SDS011;9642;50.842;4.348;2022-09-12T05:31:16;14.90;;;9.70;;
19018;SDS011;9642;50.842;4.348;2022-09-12T05:33:50;16.73;;;10.60;;
19018;SDS011;9642;50.842;4.348;2022-09-12T05:36:21;15.63;;;9.90;;
19018;SDS011;9642;50.842;4.348;2022-09-12T05:38:48;21.98;;;9.90;;
19018;SDS011;9642;50.842;4.348;2022-09-12T05:41:15;15.13;;;10.23;;
19018;SDS011;9642;50.842;4.348;2022-09-12T05:43:43;16.65;;;10.90;;
19018;SDS011;9642;50.842;4.348;2022-09-12T05:46:11;21.55;;;11.23;;
19018;SDS011;9642;50.842;4.348;2022-09-12T05:48:39;31.40;;;13.50;;
19018;SDS011;9642;50.842;4.348;2022-09-12T05:51:09;22.62;;;12.60;;
19018;SDS011;9642;50.842;4.348;2022-09-12T05:53:37;25.00;;;13.45;;
19018;SDS011;9642;50.842;4.348;2022-09-12T05:56:11;21.42;;;13.25;;
19018;SDS011;9642;50.842;4.348;2022-09-12T05:58:45;26.17;;;12.60;;
19018;SDS011;9642;50.842;4.348;2022-09-12T06:01:13;22.73;;;13.35;;
19018;SDS011;9642;50.842;4.348;2022-09-12T06:03:42;20.83;;;12.85;;
19018;SDS011;9642;50.842;4.348;2022-09-12T06:06:12;23.95;;;12.75;;
19018;SDS011;9642;50.842;4.348;2022-09-12T06:08:40;24.60;;;11.82;;
19018;SDS011;9642;50.842;4.348;2022-09-12T06:11:09;18.35;;;10.98;;
19018;SDS011;9642;50.842;4.348;2022-09-12T06:13:36;16.65;;;10.02;;
19018;SDS011;9642;50.842;4.348;2022-09-12T06:16:08;15.25;;;10.70;;
19018;SDS011;9642;50.842;4.348;2022-09-12T06:18:36;19.12;;;11.43;;
19018;SDS011;9642;50.842;4.348;2022-09-12T06:21:09;18.42;;;10.80;;
19018;SDS011;9642;50.842;4.348;2022-09-12T06:23:37;15.80;;;10.93;;
19018;SDS011;9642;50.842;4.348;2022-09-12T06:26:05;19.87;;;10.90;;
19018;SDS011;9642;50.842;4.348;2022-09-12T06:28:36;15.88;;;10.07;;
19018;SDS011;9642;50.842;4.348;2022-09-12T06:31:05;22.58;;;11.57;;
19018;SDS011;9642;50.842;4.348;2022-09-12T06:33:33;17.73;;;10.82;;
19018;SDS011;9642;50.842;4.348;2022-09-12T06:36:07;29.92;;;12.23;;
19018;SDS011;9642;50.842;4.348;2022-09-12T06:38:35;25.12;;;11.82;;
19018;SDS011;9642;50.842;4.348;2022-09-12T06:41:06;20.88;;;11.45;;
19018;SDS011;9642;50.842;4.348;2022-09-12T06:43:34;19.27;;;11.70;;
19018;SDS011;9642;50.842;4.348;2022-09-12T06:46:00;20.08;;;12.02;;
19018;SDS011;9642;50.842;4.348;2022-09-12T06:48:27;21.65;;;10.55;;
19018;SDS011;9642;50.842;4.348;2022-09-12T06:50:54;16.48;;;9.20;;
19018;SDS011;9642;50.842;4.348;2022-09-12T06:53:24;14.60;;;8.43;;
19018;SDS011;9642;50.842;4.348;2022-09-12T06:56:33;16.67;;;9.75;;
19018;SDS011;9642;50.842;4.348;2022-09-12T06:58:41;24.08;;;10.02;;
19018;SDS011;9642;50.842;4.348;2022-09-12T07:01:15;20.90;;;9.93;;
19018;SDS011;9642;50.842;4.348;2022-09-12T07:03:42;17.00;;;8.25;;
19018;SDS011;9642;50.842;4.348;2022-09-12T07:06:13;11.15;;;7.47;;
19018;SDS011;9642;50.842;4.348;2022-09-12T07:08:40;13.48;;;7.80;;
19018;SDS011;9642;50.842;4.348;2022-09-12T07:11:07;9.00;;;6.95;;
19018;SDS011;9642;50.842;4.348;2022-09-12T07:13:45;20.70;;;9.32;;
19018;SDS011;9642;50.842;4.348;2022-09-12T07:16:13;10.50;;;7.43;;
19018;SDS011;9642;50.842;4.348;2022-09-12T07:18:39;13.07;;;8.27;;
19018;SDS011;9642;50.842;4.348;2022-09-12T07:21:06;15.45;;;8.32;;
19018;SDS011;9642;50.842;4.348;2022-09-12T07:23:34;14.07;;;7.37;;
19018;SDS011;9642;50.842;4.348;2022-09-12T07:26:00;11.93;;;6.85;;
19018;SDS011;9642;50.842;4.348;2022-09-12T07:28:27;10.23;;;6.25;;
19018;SDS011;9642;50.842;4.348;2022-09-12T07:30:55;11.80;;;6.43;;
19018;SDS011;9642;50.842;4.348;2022-09-12T07:33:22;6.03;;;5.43;;
19018;SDS011;9642;50.842;4.348;2022-09-12T07:35:50;9.88;;;5.35;;
19018;SDS011;9642;50.842;4.348;2022-09-12T07:38:19;7.70;;;5.30;;
19018;SDS011;9642;50.842;4.348;2022-09-12T07:40:45;14.80;;;10.45;;
19018;SDS011;9642;50.842;4.348;2022-09-12T07:43:11;10.93;;;5.25;;
19018;SDS011;9642;50.842;4.348;2022-09-12T07:45:37;6.03;;;5.22;;
19018;SDS011;9642;50.842;4.348;2022-09-12T07:48:06;6.50;;;4.72;;
19018;SDS011;9642;50.842;4.348;2022-09-12T07:50:32;9.63;;;4.80;;
19018;SDS011;9642;50.842;4.348;2022-09-12T07:52:59;10.27;;;7.22;;
19018;SDS011;9642;50.842;4.348;2022-09-12T07:55:24;5.37;;;4.72;;
19018;SDS011;9642;50.842;4.348;2022-09-12T07:57:50;6.37;;;4.93;;
19018;SDS011;9642;50.842;4.348;2022-09-12T08:00:17;6.05;;;4.65;;
19018;SDS011;9642;50.842;4.348;2022-09-12T08:02:43;6.97;;;5.20;;
19018;SDS011;9642;50.842;4.348;2022-09-12T08:05:09;9.25;;;4.75;;
19018;SDS011;9642;50.842;4.348;2022-09-12T08:07:35;9.32;;;4.85;;
19018;SDS011;9642;50.842;4.348;2022-09-12T08:10:02;8.55;;;4.55;;
19018;SDS011;9642;50.842;4.348;2022-09-12T08:12:28;6.22;;;4.53;;
19018;SDS011;9642;50.842;4.348;2022-09-12T08:14:53;7.20;;;4.93;;
19018;SDS011;9642;50.842;4.348;2022-09-12T08:17:19;6.37;;;4.65;;
19018;SDS011;9642;50.842;4.348;2022-09-12T08:19:46;10.25;;;5.82;;
19018;SDS011;9642;50.842;4.348;2022-09-12T08:22:12;9.15;;;5.20;;
19018;SDS011;9642;50.842;4.348;2022-09-12T08:24:38;8.55;;;5.07;;
19018;SDS011;9642;50.842;4.348;2022-09-12T08:27:04;6.75;;;5.07;;
19018;SDS011;9642;50.842;4.348;2022-09-12T08:29:30;6.93;;;4.85;;
19018;SDS011;9642;50.842;4.348;2022-09-12T08:31:57;9.95;;;6.95;;
19018;SDS011;9642;50.842;4.348;2022-09-12T08:34:22;11.70;;;5.07;;
19018;SDS011;9642;50.842;4.348;2022-09-12T08:36:49;11.02;;;6.95;;
19018;SDS011;9642;50.842;4.348;2022-09-12T08:39:15;7.65;;;5.37;;
19018;SDS011;9642;50.842;4.348;2022-09-12T08:41:48;12.73;;;5.50;;
19018;SDS011;9642;50.842;4.348;2022-09-12T08:44:35;10.00;;;5.82;;
19018;SDS011;9642;50.842;4.348;2022-09-12T08:49:54;7.65;;;4.90;;
19018;SDS011;9642;50.842;4.348;2022-09-12T08:52:33;11.43;;;4.65;;
19018;SDS011;9642;50.842;4.348;2022-09-12T08:57:58;9.18;;;4.60;;
19018;SDS011;9642;50.842;4.348;2022-09-12T09:01:21;7.72;;;4.28;;
19018;SDS011;9642;50.842;4.348;2022-09-12T09:07:16;10.50;;;5.07;;
19018;SDS011;9642;50.842;4.348;2022-09-12T09:12:25;5.35;;;4.22;;
19018;SDS011;9642;50.842;4.348;2022-09-12T09:15:13;6.00;;;4.30;;
19018;SDS011;9642;50.842;4.348;2022-09-12T09:18:04;8.70;;;4.87;;
19018;SDS011;9642;50.842;4.348;2022-09-12T09:20:53;6.25;;;3.78;;
19018;SDS011;9642;50.842;4.348;2022-09-12T09:23:41;10.00;;;5.85;;
19018;SDS011;9642;50.842;4.348;2022-09-12T09:28:49;7.15;;;3.80;;
19018;SDS011;9642;50.842;4.348;2022-09-12T09:31:19;11.12;;;4.90;;
19018;SDS011;9642;50.842;4.348;2022-09-12T09:33:53;8.15;;;3.90;;
19018;SDS011;9642;50.842;4.348;2022-09-12T09:36:21;8.48;;;4.22;;
19018;SDS011;9642;50.842;4.348;2022-09-12T09:39:21;7.07;;;3.70;;
19018;SDS011;9642;50.842;4.348;2022-09-12T09:42:00;5.45;;;3.50;;
19018;SDS011;9642;50.842;4.348;2022-09-12T09:44:52;10.05;;;3.97;;
19018;SDS011;9642;50.842;4.348;2022-09-12T09:47:23;6.95;;;2.95;;
19018;SDS011;9642;50.842;4.348;2022-09-12T09:49:48;7.22;;;3.17;;
19018;SDS011;9642;50.842;4.348;2022-09-12T09:52:15;6.53;;;2.78;;
19018;SDS011;9642;50.842;4.348;2022-09-12T09:54:49;6.35;;;2.40;;
19018;SDS011;9642;50.842;4.348;2022-09-12T09:59:58;4.40;;;2.95;;
19018;SDS011;9642;50.842;4.348;2022-09-12T10:02:55;7.28;;;3.22;;
19018;SDS011;9642;50.842;4.348;2022-09-12T10:05:23;6.45;;;2.65;;
19018;SDS011;9642;50.842;4.348;2022-09-12T10:07:52;13.00;;;3.60;;
19018;SDS011;9642;50.842;4.348;2022-09-12T10:10:19;10.40;;;2.55;;
19018;SDS011;9642;50.842;4.348;2022-09-12T10:12:48;5.05;;;1.95;;
19018;SDS011;9642;50.842;4.348;2022-09-12T10:15:21;3.75;;;2.30;;
19018;SDS011;9642;50.842;4.348;2022-09-12T10:17:52;3.58;;;2.22;;
19018;SDS011;9642;50.842;4.348;2022-09-12T10:20:31;7.68;;;2.20;;
19018;SDS011;9642;50.842;4.348;2022-09-12T10:26:02;4.60;;;1.92;;
19018;SDS011;9642;50.842;4.348;2022-09-12T10:28:37;5.53;;;2.35;;
19018;SDS011;9642;50.842;4.348;2022-09-12T10:31:09;5.60;;;2.37;;
19018;SDS011;9642;50.842;4.348;2022-09-12T10:33:44;4.57;;;2.60;;
19018;SDS011;9642;50.842;4.348;2022-09-12T10:36:17;6.85;;;2.60;;
19018;SDS011;9642;50.842;4.348;2022-09-12T10:38:50;3.35;;;2.00;;
19018;SDS011;9642;50.842;4.348;2022-09-12T10:41:22;4.80;;;2.33;;
19018;SDS011;9642;50.842;4.348;2022-09-12T10:43:48;6.68;;;2.00;;
19018;SDS011;9642;50.842;4.348;2022-09-12T10:48:47;5.35;;;1.75;;
19018;SDS011;9642;50.842;4.348;2022-09-12T10:53:56;2.87;;;1.40;;
19018;SDS011;9642;50.842;4.348;2022-09-12T11:05:01;3.33;;;1.55;;
19018;SDS011;9642;50.842;4.348;2022-09-12T11:10:14;7.95;;;2.30;;
19018;SDS011;9642;50.842;4.348;2022-09-12T11:13:05;5.47;;;1.90;;
19018;SDS011;9642;50.842;4.348;2022-09-12T11:15:51;6.40;;;2.65;;
19018;SDS011;9642;50.842;4.348;2022-09-12T11:30:12;2.53;;;1.70;;
19018;SDS011;9642;50.842;4.348;2022-09-12T11:35:34;3.90;;;2.20;;
19018;SDS011;9642;50.842;4.348;2022-09-12T11:45:49;6.70;;;1.90;;
19018;SDS011;9642;50.842;4.348;2022-09-12T11:48:28;4.22;;;2.00;;
19018;SDS011;9642;50.842;4.348;2022-09-12T11:51:16;2.55;;;1.40;;
19018;SDS011;9642;50.842;4.348;2022-09-12T11:53:58;4.03;;;2.28;;
19018;SDS011;9642;50.842;4.348;2022-09-12T11:56:44;4.05;;;1.45;;
19018;SDS011;9642;50.842;4.348;2022-09-12T11:59:17;6.40;;;1.90;;
19018;SDS011;9642;50.842;4.348;2022-09-12T12:02:02;2.08;;;1.70;;
19018;SDS011;9642;50.842;4.348;2022-09-12T12:04:38;2.10;;;1.40;;
19018;SDS011;9642;50.842;4.348;2022-09-12T12:07:11;5.30;;;1.75;;
19018;SDS011;9642;50.842;4.348;2022-09-12T12:09:45;5.15;;;1.50;;
19018;SDS011;9642;50.842;4.348;2022-09-12T12:12:18;6.50;;;3.85;;
19018;SDS011;9642;50.842;4.348;2022-09-12T12:14:50;4.70;;;1.92;;
19018;SDS011;9642;50.842;4.348;2022-09-12T12:17:26;3.62;;;1.48;;
19018;SDS011;9642;50.842;4.348;2022-09-12T12:20:01;5.82;;;1.50;;
19018;SDS011;9642;50.842;4.348;2022-09-12T12:22:29;4.20;;;1.42;;
19018;SDS011;9642;50.842;4.348;2022-09-12T12:35:41;5.68;;;2.33;;
19018;SDS011;9642;50.842;4.348;2022-09-12T12:41:09;2.62;;;1.60;;
19018;SDS011;9642;50.842;4.348;2022-09-12T12:43:42;2.30;;;1.30;;
19018;SDS011;9642;50.842;4.348;2022-09-12T12:46:13;3.12;;;1.50;;
19018;SDS011;9642;50.842;4.348;2022-09-12T12:48:45;4.78;;;2.05;;
19018;SDS011;9642;50.842;4.348;2022-09-12T12:53:48;3.65;;;1.23;;
19018;SDS011;9642;50.842;4.348;2022-09-12T12:56:24;4.97;;;1.70;;
19018;SDS011;9642;50.842;4.348;2022-09-12T12:59:05;8.85;;;2.33;;
19018;SDS011;9642;50.842;4.348;2022-09-12T13:01:43;17.37;;;3.50;;
19018;SDS011;9642;50.842;4.348;2022-09-12T13:04:13;21.85;;;3.08;;
19018;SDS011;9642;50.842;4.348;2022-09-12T13:06:43;4.82;;;1.70;;
19018;SDS011;9642;50.842;4.348;2022-09-12T13:12:19;6.95;;;1.90;;
19018;SDS011;9642;50.842;4.348;2022-09-12T13:14:49;5.07;;;1.50;;
19018;SDS011;9642;50.842;4.348;2022-09-12T13:17:18;2.97;;;1.75;;
19018;SDS011;9642;50.842;4.348;2022-09-12T13:19:46;4.53;;;2.20;;
19018;SDS011;9642;50.842;4.348;2022-09-12T13:22:13;6.40;;;1.75;;
19018;SDS011;9642;50.842;4.348;2022-09-12T13:24:46;4.15;;;2.03;;
19018;SDS011;9642;50.842;4.348;2022-09-12T13:27:23;9.25;;;2.17;;
19018;SDS011;9642;50.842;4.348;2022-09-12T13:30:12;4.12;;;2.10;;
19018;SDS011;9642;50.842;4.348;2022-09-12T13:32:40;4.32;;;1.80;;
19018;SDS011;9642;50.842;4.348;2022-09-12T13:37:59;4.80;;;2.53;;
19018;SDS011;9642;50.842;4.348;2022-09-12T13:41:11;4.05;;;1.62;;
19018;SDS011;9642;50.842;4.348;2022-09-12T13:43:49;3.55;;;1.45;;
19018;SDS011;9642;50.842;4.348;2022-09-12T13:46:25;2.08;;;1.60;;
19018;SDS011;9642;50.842;4.348;2022-09-12T13:48:55;4.62;;;1.52;;
19018;SDS011;9642;50.842;4.348;2022-09-12T13:51:24;5.22;;;1.92;;
19018;SDS011;9642;50.842;4.348;2022-09-12T13:53:54;3.53;;;1.55;;
19018;SDS011;9642;50.842;4.348;2022-09-12T13:56:24;3.17;;;1.50;;
19018;SDS011;9642;50.842;4.348;2022-09-12T13:58:52;4.70;;;1.30;;
19018;SDS011;9642;50.842;4.348;2022-09-12T14:01:20;4.00;;;2.12;;
19018;SDS011;9642;50.842;4.348;2022-09-12T14:03:49;3.15;;;1.70;;
19018;SDS011;9642;50.842;4.348;2022-09-12T14:09:20;2.90;;;2.00;;
19018;SDS011;9642;50.842;4.348;2022-09-12T14:11:52;4.25;;;1.42;;
19018;SDS011;9642;50.842;4.348;2022-09-12T14:14:33;2.40;;;1.50;;
19018;SDS011;9642;50.842;4.348;2022-09-12T14:17:47;3.25;;;1.67;;
19018;SDS011;9642;50.842;4.348;2022-09-12T14:20:01;1.77;;;1.23;;
19018;SDS011;9642;50.842;4.348;2022-09-12T14:22:32;1.83;;;1.23;;
19018;SDS011;9642;50.842;4.348;2022-09-12T14:25:00;2.28;;;1.30;;
19018;SDS011;9642;50.842;4.348;2022-09-12T14:27:38;4.78;;;1.60;;
19018;SDS011;9642;50.842;4.348;2022-09-12T14:30:27;4.95;;;2.75;;
19018;SDS011;9642;50.842;4.348;2022-09-12T14:35:48;4.78;;;1.60;;
19018;SDS011;9642;50.842;4.348;2022-09-12T14:40:43;5.30;;;1.60;;
19018;SDS011;9642;50.842;4.348;2022-09-12T14:43:37;5.78;;;2.20;;
19018;SDS011;9642;50.842;4.348;2022-09-12T14:46:17;9.73;;;2.70;;
19018;SDS011;9642;50.842;4.348;2022-09-12T14:48:49;5.72;;;1.48;;
19018;SDS011;9642;50.842;4.348;2022-09-12T14:51:24;3.17;;;1.73;;
19018;SDS011;9642;50.842;4.348;2022-09-12T14:53:51;6.90;;;2.62;;
19018;SDS011;9642;50.842;4.348;2022-09-12T14:56:21;5.00;;;1.90;;
19018;SDS011;9642;50.842;4.348;2022-09-12T15:04:48;4.40;;;1.45;;
19018;SDS011;9642;50.842;4.348;2022-09-12T15:07:20;2.28;;;1.52;;
19018;SDS011;9642;50.842;4.348;2022-09-12T15:10:04;4.35;;;1.85;;
19018;SDS011;9642;50.842;4.348;2022-09-12T15:12:31;2.83;;;1.37;;
19018;SDS011;9642;50.842;4.348;2022-09-12T15:14:58;2.80;;;1.25;;
19018;SDS011;9642;50.842;4.348;2022-09-12T15:17:31;5.12;;;1.37;;
19018;SDS011;9642;50.842;4.348;2022-09-12T15:19:57;5.47;;;1.80;;
19018;SDS011;9642;50.842;4.348;2022-09-12T15:22:22;6.03;;;1.77;;
19018;SDS011;9642;50.842;4.348;2022-09-12T15:24:50;7.37;;;1.95;;
19018;SDS011;9642;50.842;4.348;2022-09-12T15:27:17;4.40;;;1.85;;
19018;SDS011;9642;50.842;4.348;2022-09-12T15:29:43;9.45;;;2.80;;
19018;SDS011;9642;50.842;4.348;2022-09-12T15:32:12;3.17;;;2.10;;
19018;SDS011;9642;50.842;4.348;2022-09-12T15:34:47;3.50;;;2.15;;
19018;SDS011;9642;50.842;4.348;2022-09-12T15:37:13;5.57;;;1.62;;
19018;SDS011;9642;50.842;4.348;2022-09-12T15:39:40;6.43;;;1.90;;
19018;SDS011;9642;50.842;4.348;2022-09-12T15:42:07;5.60;;;1.70;;
19018;SDS011;9642;50.842;4.348;2022-09-12T15:44:38;7.28;;;1.75;;
19018;SDS011;9642;50.842;4.348;2022-09-12T15:47:05;3.42;;;1.25;;
19018;SDS011;9642;50.842;4.348;2022-09-12T15:49:32;9.02;;;2.80;;
19018;SDS011;9642;50.842;4.348;2022-09-12T15:51:58;3.83;;;1.40;;
19018;SDS011;9642;50.842;4.348;2022-09-12T15:54:24;1.75;;;1.40;;
19018;SDS011;9642;50.842;4.348;2022-09-12T15:56:50;4.20;;;1.40;;
19018;SDS011;9642;50.842;4.348;2022-09-12T15:59:16;3.70;;;1.40;;
19018;SDS011;9642;50.842;4.348;2022-09-12T16:01:42;7.37;;;1.90;;
19018;SDS011;9642;50.842;4.348;2022-09-12T16:06:48;6.20;;;1.40;;
19018;SDS011;9642;50.842;4.348;2022-09-12T16:09:15;4.57;;;1.90;;
19018;SDS011;9642;50.842;4.348;2022-09-12T16:11:40;2.40;;;1.58;;
19018;SDS011;9642;50.842;4.348;2022-09-12T16:14:07;4.70;;;1.40;;
19018;SDS011;9642;50.842;4.348;2022-09-12T16:16:33;2.85;;;1.20;;
19018;SDS011;9642;50.842;4.348;2022-09-12T16:18:59;2.25;;;1.50;;
19018;SDS011;9642;50.842;4.348;2022-09-12T16:21:25;3.70;;;1.40;;
19018;SDS011;9642;50.842;4.348;2022-09-12T16:23:51;3.72;;;1.60;;
19018;SDS011;9642;50.842;4.348;2022-09-12T16:26:17;3.33;;;1.33;;
19018;SDS011;9642;50.842;4.348;2022-09-12T16:28:43;11.73;;;4.28;;
19018;SDS011;9642;50.842;4.348;2022-09-12T16:31:10;4.68;;;1.90;;
19018;SDS011;9642;50.842;4.348;2022-09-12T16:33:37;11.50;;;4.07;;
19018;SDS011;9642;50.842;4.348;2022-09-12T16:36:08;4.97;;;2.40;;
19018;SDS011;9642;50.842;4.348;2022-09-12T16:38:40;10.80;;;1.98;;
19018;SDS011;9642;50.842;4.348;2022-09-12T16:41:07;6.90;;;2.92;;
19018;SDS011;9642;50.842;4.348;2022-09-12T16:43:33;5.25;;;1.52;;
19018;SDS011;9642;50.842;4.348;2022-09-12T16:46:05;5.93;;;2.05;;
19018;SDS011;9642;50.842;4.348;2022-09-12T16:48:33;6.82;;;2.87;;
19018;SDS011;9642;50.842;4.348;2022-09-12T16:51:03;9.27;;;4.40;;
19018;SDS011;9642;50.842;4.348;2022-09-12T16:53:31;2.25;;;1.40;;
19018;SDS011;9642;50.842;4.348;2022-09-12T16:55:59;11.50;;;2.87;;
19018;SDS011;9642;50.842;4.348;2022-09-12T16:58:25;2.08;;;1.60;;
19018;SDS011;9642;50.842;4.348;2022-09-12T17:01:01;2.55;;;1.50;;
19018;SDS011;9642;50.842;4.348;2022-09-12T17:03:27;4.82;;;1.83;;
19018;SDS011;9642;50.842;4.348;2022-09-12T17:05:57;3.50;;;1.52;;
19018;SDS011;9642;50.842;4.348;2022-09-12T17:08:23;2.92;;;1.45;;
19018;SDS011;9642;50.842;4.348;2022-09-12T17:10:49;4.80;;;2.08;;
19018;SDS011;9642;50.842;4.348;2022-09-12T17:13:15;4.95;;;1.80;;
19018;SDS011;9642;50.842;4.348;2022-09-12T17:15:41;2.30;;;1.70;;
19018;SDS011;9642;50.842;4.348;2022-09-12T17:18:07;6.75;;;2.30;;